Time;durP1;ratioP1;P1;durP2;ratioP2;P2;SDS_P1;SDS_P2;PMS_P1;PMS_P2;Temp;Humidity;BMP_temperature;BMP_pressure;BME280_temperature;BME280_humidity;BME280_pressure;Samples;Min_cycle;Max_cycle;Signal;HPM_P1;HPM_P2
2023/05/30 00:01:39;;;;;;;8.48;2.10;;;11.60;99.90;;;;;;5014418;28;20085;-67
2023/05/30 00:04:05;;;;;;;5.10;1.80;;;11.60;99.90;;;;;;5014489;28;20053;-67
2023/05/30 00:06:31;;;;;;;10.35;2.63;;;11.70;99.90;;;;;;5014319;28;20450;-67
2023/05/30 00:08:57;;;;;;;7.85;2.85;;;11.70;99.90;;;;;;5014462;28;20040;-68
2023/05/30 00:11:23;;;;;;;9.75;2.13;;;11.70;99.90;;;;;;5014498;28;20053;-67
2023/05/30 00:13:50;;;;;;;4.75;2.05;;;11.70;99.90;;;;;;5014201;28;20054;-67
2023/05/30 00:16:19;;;;;;;6.68;2.20;;;11.70;99.90;;;;;;5014238;28;20112;-68
2023/05/30 00:18:45;;;;;;;11.68;2.70;;;11.70;99.90;;;;;;5014129;28;20050;-67
2023/05/30 00:21:11;;;;;;;5.47;1.50;;;11.80;99.90;;;;;;5014131;28;20060;-67
2023/05/30 00:23:39;;;;;;;9.60;1.95;;;11.80;99.90;;;;;;5012976;28;20046;-68
2023/05/30 00:26:08;;;;;;;7.55;2.13;;;11.80;99.90;;;;;;5014061;28;20054;-67
2023/05/30 00:28:34;;;;;;;5.63;2.05;;;11.80;99.90;;;;;;5013922;28;20076;-67
2023/05/30 00:31:00;;;;;;;8.00;1.98;;;11.80;99.90;;;;;;5013984;28;20128;-67
2023/05/30 00:33:26;;;;;;;5.25;1.90;;;11.80;99.90;;;;;;5013871;28;20134;-67
2023/05/30 00:35:51;;;;;;;6.20;1.70;;;11.70;99.90;;;;;;5013918;28;20042;-68
2023/05/30 00:38:17;;;;;;;5.55;1.75;;;11.80;99.90;;;;;;5013983;28;20053;-68
2023/05/30 00:40:43;;;;;;;6.72;2.65;;;11.70;99.90;;;;;;5013912;28;20053;-68
2023/05/30 00:43:09;;;;;;;6.47;2.25;;;11.70;99.90;;;;;;5013874;28;20112;-68
2023/05/30 00:45:36;;;;;;;5.63;2.00;;;11.70;99.90;;;;;;5013544;28;20049;-68
2023/05/30 00:48:02;;;;;;;7.18;1.98;;;11.60;99.90;;;;;;5012539;28;20103;-68
2023/05/30 00:50:30;;;;;;;4.50;2.15;;;11.60;99.90;;;;;;5012706;28;20048;-68
2023/05/30 00:52:57;;;;;;;6.47;2.30;;;11.60;99.90;;;;;;5012597;28;20116;-67
2023/05/30 00:55:25;;;;;;;4.45;2.13;;;11.60;99.90;;;;;;5013672;28;20045;-68
2023/05/30 00:57:51;;;;;;;6.40;2.15;;;11.60;99.90;;;;;;5013049;28;20112;-68
2023/05/30 01:00:17;;;;;;;3.53;1.90;;;11.50;99.90;;;;;;5012964;28;20057;-68
2023/05/30 01:02:44;;;;;;;4.93;2.10;;;11.60;99.90;;;;;;5018067;28;20045;-68
2023/05/30 01:05:14;;;;;;;7.55;2.35;;;11.50;99.90;;;;;;5016732;28;20136;-68
2023/05/30 01:07:43;;;;;;;4.25;2.08;;;11.50;99.90;;;;;;5017573;28;20085;-68
2023/05/30 01:10:13;;;;;;;6.00;2.47;;;11.50;99.90;;;;;;5017657;28;20132;-68
2023/05/30 01:12:47;;;;;;;6.18;2.20;;;11.50;99.90;;;;;;5018155;28;20053;-68
2023/05/30 01:15:36;;;;;;;6.80;2.00;;;11.40;99.90;;;;;;5018113;28;20053;-68
2023/05/30 01:18:05;;;;;;;5.57;2.65;;;11.40;99.90;;;;;;5018070;28;20120;-67
2023/05/30 01:20:44;;;;;;;5.32;2.20;;;11.30;99.90;;;;;;5017421;28;20085;-68
2023/05/30 01:23:09;;;;;;;6.28;2.42;;;11.40;99.90;;;;;;5017892;28;20060;-68
2023/05/30 01:25:35;;;;;;;5.22;2.20;;;11.40;99.90;;;;;;5017340;28;20050;-68
2023/05/30 01:28:21;;;;;;;5.10;2.22;;;11.40;99.90;;;;;;5017307;28;20049;-68
2023/05/30 01:30:51;;;;;;;5.03;2.17;;;11.30;99.90;;;;;;5017571;28;20057;-67
2023/05/30 01:33:21;;;;;;;7.63;2.67;;;11.30;99.90;;;;;;5017478;28;20050;-68
2023/05/30 01:35:47;;;;;;;5.00;2.22;;;11.30;99.90;;;;;;5017167;28;20414;-68
2023/05/30 01:38:14;;;;;;;4.22;1.85;;;11.30;99.90;;;;;;5017056;28;20046;-68
2023/05/30 01:40:46;;;;;;;4.07;2.00;;;11.30;99.90;;;;;;5016837;28;20058;-67
2023/05/30 01:43:33;;;;;;;6.32;2.22;;;11.30;99.90;;;;;;5016882;28;20057;-68
2023/05/30 01:46:25;;;;;;;5.00;2.25;;;11.30;99.90;;;;;;5017287;28;20053;-68
2023/05/30 01:49:15;;;;;;;5.97;2.03;;;11.30;99.90;;;;;;5015400;28;20046;-67
2023/05/30 01:51:49;;;;;;;6.28;2.55;;;11.20;99.90;;;;;;5016855;28;20518;-68
2023/05/30 01:54:17;;;;;;;6.97;2.63;;;11.20;99.90;;;;;;5016866;28;20108;-68
2023/05/30 01:56:50;;;;;;;4.47;2.25;;;11.20;99.90;;;;;;5016780;28;20443;-68
2023/05/30 01:59:17;;;;;;;7.35;2.45;;;11.20;99.90;;;;;;5016768;28;20053;-67
2023/05/30 02:01:44;;;;;;;4.13;2.40;;;11.20;99.90;;;;;;5017294;28;20085;-68
2023/05/30 02:04:10;;;;;;;5.45;2.10;;;11.20;99.90;;;;;;5015475;28;20054;-67
2023/05/30 02:06:37;;;;;;;7.60;2.70;;;11.20;99.90;;;;;;5016880;28;20395;-68
2023/05/30 02:09:04;;;;;;;5.13;2.30;;;11.20;99.90;;;;;;5016480;28;20116;-67
2023/05/30 02:11:29;;;;;;;5.68;2.15;;;11.20;99.90;;;;;;5016236;28;20179;-68
2023/05/30 02:13:57;;;;;;;5.45;3.03;;;11.10;99.90;;;;;;5015549;28;20046;-67
2023/05/30 02:16:24;;;;;;;5.20;2.70;;;11.20;99.90;;;;;;5016042;28;20411;-67
2023/05/30 02:18:50;;;;;;;6.38;2.50;;;11.10;99.90;;;;;;5017141;28;20050;-67
2023/05/30 02:21:16;;;;;;;4.72;2.05;;;11.10;99.90;;;;;;4999703;28;20046;-67
2023/05/30 02:23:41;;;;;;;7.85;2.58;;;11.10;99.90;;;;;;5016288;28;20053;-67
2023/05/30 02:26:07;;;;;;;4.70;2.30;;;11.10;99.90;;;;;;5016502;28;20061;-68
2023/05/30 02:28:33;;;;;;;4.40;2.10;;;11.10;99.90;;;;;;5016114;28;20046;-68
2023/05/30 02:30:59;;;;;;;6.63;2.40;;;11.10;99.90;;;;;;5016347;28;20513;-68
2023/05/30 02:33:26;;;;;;;7.40;2.60;;;11.00;99.90;;;;;;5016595;28;20046;-68
2023/05/30 02:35:51;;;;;;;5.85;2.45;;;11.10;99.90;;;;;;5016054;28;20140;-68
2023/05/30 02:38:17;;;;;;;4.88;2.10;;;11.10;99.90;;;;;;5015976;28;20124;-68
2023/05/30 02:40:43;;;;;;;5.53;2.30;;;11.00;99.90;;;;;;5015877;28;20509;-68
2023/05/30 02:43:08;;;;;;;6.28;2.08;;;11.10;99.90;;;;;;5015581;28;20054;-68
2023/05/30 02:45:34;;;;;;;7.72;2.35;;;11.10;99.90;;;;;;5016442;28;20104;-68
2023/05/30 02:48:00;;;;;;;8.98;2.33;;;11.00;99.90;;;;;;5015776;28;20064;-68
2023/05/30 02:50:25;;;;;;;4.40;2.28;;;11.00;99.90;;;;;;5015717;28;20053;-67
2023/05/30 02:52:51;;;;;;;4.53;2.45;;;11.00;99.90;;;;;;5015693;28;20041;-68
2023/05/30 02:55:17;;;;;;;5.70;2.13;;;11.00;99.90;;;;;;5015629;28;20501;-68
2023/05/30 02:57:42;;;;;;;6.70;2.53;;;11.00;99.90;;;;;;5014910;28;20053;-68
2023/05/30 03:00:12;;;;;;;6.30;1.75;;;11.00;99.90;;;;;;5015902;28;20050;-68
2023/05/30 03:02:37;;;;;;;8.85;2.50;;;11.00;99.90;;;;;;5015517;28;20144;-68
2023/05/30 03:05:03;;;;;;;6.32;2.10;;;11.00;99.90;;;;;;5015361;28;20089;-68
2023/05/30 03:07:32;;;;;;;4.45;2.38;;;11.00;99.90;;;;;;5015250;28;20046;-68
2023/05/30 03:09:58;;;;;;;3.88;1.88;;;11.00;99.90;;;;;;5013985;28;20061;-68
2023/05/30 03:12:24;;;;;;;5.40;2.00;;;10.90;99.90;;;;;;5015208;28;20038;-68
2023/05/30 03:14:50;;;;;;;6.72;2.20;;;10.90;99.90;;;;;;5014987;28;20406;-67
2023/05/30 03:17:15;;;;;;;6.50;2.10;;;10.90;99.90;;;;;;5016178;28;20042;-67
2023/05/30 03:19:41;;;;;;;4.97;1.95;;;10.90;99.90;;;;;;5016868;28;20049;-67
2023/05/30 03:22:07;;;;;;;5.13;1.90;;;10.90;99.90;;;;;;5016874;28;20050;-67
2023/05/30 03:24:33;;;;;;;4.80;1.67;;;10.90;99.90;;;;;;5016798;28;20136;-67
2023/05/30 03:27:00;;;;;;;4.97;2.20;;;10.90;99.90;;;;;;5016127;28;20053;-67
2023/05/30 03:29:27;;;;;;;7.32;2.10;;;10.90;99.90;;;;;;5016219;28;20056;-68
2023/05/30 03:31:52;;;;;;;6.90;2.20;;;10.90;99.90;;;;;;5015072;28;20057;-68
2023/05/30 03:34:18;;;;;;;3.88;1.95;;;10.90;99.90;;;;;;5015019;28;20157;-68
2023/05/30 03:36:45;;;;;;;5.38;2.30;;;10.90;99.90;;;;;;5014776;28;20050;-68
2023/05/30 03:39:12;;;;;;;5.32;2.17;;;10.90;99.90;;;;;;5014831;28;20046;-68
2023/05/30 03:41:39;;;;;;;4.95;1.88;;;10.90;99.90;;;;;;5014491;28;20066;-67
2023/05/30 03:44:05;;;;;;;3.92;2.08;;;10.90;99.90;;;;;;5015366;28;20065;-67
2023/05/30 03:46:31;;;;;;;7.55;2.60;;;10.90;99.90;;;;;;5013595;28;20042;-68
2023/05/30 03:48:58;;;;;;;5.72;1.90;;;10.90;99.90;;;;;;5014639;28;20120;-68
2023/05/30 03:51:24;;;;;;;6.45;2.33;;;10.90;99.90;;;;;;5014461;28;20050;-67
2023/05/30 03:53:50;;;;;;;5.95;2.35;;;10.90;99.90;;;;;;5014251;28;20056;-67
2023/05/30 03:56:16;;;;;;;6.45;2.17;;;10.90;99.90;;;;;;5013240;28;20050;-67
2023/05/30 03:58:41;;;;;;;6.60;2.20;;;11.00;99.90;;;;;;5014041;28;20149;-67
2023/05/30 04:01:07;;;;;;;5.53;2.20;;;11.00;99.90;;;;;;5013244;28;20053;-68
2023/05/30 04:03:35;;;;;;;7.55;2.35;;;11.10;99.90;;;;;;5014409;28;20197;-68
2023/05/30 04:06:00;;;;;;;3.92;1.90;;;11.10;99.90;;;;;;5013434;28;20054;-67
2023/05/30 04:08:26;;;;;;;3.90;2.03;;;11.10;99.90;;;;;;5014280;28;20049;-67
2023/05/30 04:10:52;;;;;;;6.43;2.70;;;11.10;99.90;;;;;;5013474;28;20041;-67
2023/05/30 04:13:18;;;;;;;4.72;2.10;;;11.10;99.90;;;;;;5014255;28;20046;-67
2023/05/30 04:15:44;;;;;;;5.43;2.45;;;11.20;99.90;;;;;;5014808;28;20497;-67
2023/05/30 04:18:10;;;;;;;4.10;2.33;;;11.20;99.90;;;;;;5014128;28;20119;-67
2023/05/30 04:20:35;;;;;;;5.43;2.17;;;11.20;99.90;;;;;;5014195;28;20045;-68
2023/05/30 04:23:01;;;;;;;6.22;2.30;;;11.30;99.90;;;;;;5013130;28;20501;-68
2023/05/30 04:25:27;;;;;;;6.40;2.35;;;11.40;99.90;;;;;;5014069;28;20045;-67
2023/05/30 04:27:54;;;;;;;3.50;2.00;;;11.40;99.90;;;;;;5014782;28;20046;-67
2023/05/30 04:30:20;;;;;;;5.13;2.17;;;11.40;99.90;;;;;;5014270;28;20088;-67
2023/05/30 04:32:46;;;;;;;4.90;1.83;;;11.50;99.90;;;;;;5014774;28;20091;-68
2023/05/30 04:35:15;;;;;;;6.47;2.65;;;11.50;99.90;;;;;;5013381;28;20074;-68
2023/05/30 04:37:44;;;;;;;6.25;2.47;;;11.50;99.90;;;;;;5014462;28;20348;-67
2023/05/30 04:40:13;;;;;;;5.97;2.53;;;11.60;99.90;;;;;;5013901;28;20136;-67
2023/05/30 04:42:43;;;;;;;7.68;2.60;;;11.70;99.90;;;;;;5014992;28;20370;-68
2023/05/30 04:45:14;;;;;;;4.50;2.40;;;11.80;99.90;;;;;;5013900;28;20073;-68
2023/05/30 04:47:40;;;;;;;5.40;2.22;;;11.70;99.90;;;;;;5012536;28;20054;-68
2023/05/30 04:50:06;;;;;;;6.50;2.53;;;11.80;99.90;;;;;;5013356;28;20108;-68
2023/05/30 04:52:32;;;;;;;7.65;2.85;;;11.90;99.90;;;;;;5014480;28;20064;-68
2023/05/30 04:54:58;;;;;;;4.03;2.20;;;11.90;99.90;;;;;;5014346;28;20542;-68
2023/05/30 04:57:23;;;;;;;6.55;2.20;;;11.90;99.90;;;;;;5013775;28;20042;-67
2023/05/30 04:59:49;;;;;;;6.32;2.30;;;11.90;99.90;;;;;;5013347;28;20425;-68
2023/05/30 05:02:16;;;;;;;5.82;2.05;;;11.90;99.90;;;;;;5013654;28;20132;-67
2023/05/30 05:04:42;;;;;;;4.93;2.00;;;11.90;99.90;;;;;;5013277;28;20447;-67
2023/05/30 05:07:08;;;;;;;4.43;2.05;;;12.00;99.90;;;;;;5013300;28;20079;-68
2023/05/30 05:09:33;;;;;;;6.03;1.90;;;12.00;99.90;;;;;;5012755;28;20058;-69
2023/05/30 05:12:01;;;;;;;4.90;2.03;;;12.10;99.90;;;;;;5012730;28;20490;-69
2023/05/30 05:14:26;;;;;;;8.50;2.30;;;12.10;99.90;;;;;;5012620;28;20050;-68
2023/05/30 05:16:52;;;;;;;4.13;1.80;;;12.10;99.90;;;;;;5014105;28;20390;-69
2023/05/30 05:19:18;;;;;;;6.30;2.20;;;12.10;99.90;;;;;;5014054;28;20046;-67
2023/05/30 05:21:43;;;;;;;6.05;2.05;;;12.10;99.90;;;;;;5013519;28;20057;-66
2023/05/30 05:24:09;;;;;;;5.03;2.08;;;12.10;99.90;;;;;;5013505;28;20446;-67
2023/05/30 05:26:35;;;;;;;4.28;1.80;;;12.10;99.90;;;;;;5013521;28;20050;-67
2023/05/30 05:29:01;;;;;;;3.63;1.67;;;12.10;99.90;;;;;;5013157;28;20610;-67
2023/05/30 05:31:27;;;;;;;6.32;2.42;;;12.20;99.90;;;;;;5014018;28;20137;-66
2023/05/30 05:33:53;;;;;;;5.38;1.83;;;12.10;99.90;;;;;;5013443;28;20045;-66
2023/05/30 05:36:19;;;;;;;6.32;2.20;;;12.20;99.90;;;;;;5013390;28;20054;-66
2023/05/30 05:38:44;;;;;;;5.43;2.55;;;12.30;99.90;;;;;;5014153;28;20061;-67
2023/05/30 05:41:10;;;;;;;5.38;2.20;;;12.30;99.90;;;;;;5013446;28;20497;-66
2023/05/30 05:43:36;;;;;;;5.13;2.13;;;12.40;99.90;;;;;;5013367;28;20165;-66
2023/05/30 05:46:02;;;;;;;6.93;2.47;;;12.50;99.90;;;;;;5013328;28;20038;-67
2023/05/30 05:48:28;;;;;;;6.68;3.65;;;12.50;99.90;;;;;;5015595;28;20447;-67
2023/05/30 05:50:54;;;;;;;4.65;1.95;;;12.60;99.90;;;;;;5016839;28;20092;-67
2023/05/30 05:53:20;;;;;;;6.03;2.17;;;12.60;99.90;;;;;;5017613;28;20100;-67
2023/05/30 05:55:45;;;;;;;5.18;1.98;;;12.60;99.90;;;;;;5016745;28;20050;-67
2023/05/30 05:58:12;;;;;;;6.45;1.92;;;12.60;99.90;;;;;;5016725;28;20037;-67
2023/05/30 06:00:38;;;;;;;5.10;1.80;;;12.60;99.90;;;;;;5015534;28;20100;-67
2023/05/30 06:03:04;;;;;;;6.28;2.10;;;12.60;99.90;;;;;;4999465;28;20503;-67
2023/05/30 06:05:30;;;;;;;3.97;1.95;;;12.60;99.90;;;;;;5016603;28;20088;-67
2023/05/30 06:07:57;;;;;;;3.63;1.52;;;12.60;99.90;;;;;;5016425;28;20046;-67
2023/05/30 06:10:24;;;;;;;4.97;1.90;;;12.60;99.90;;;;;;5016452;28;20057;-67
2023/05/30 06:12:50;;;;;;;5.70;1.73;;;12.60;99.90;;;;;;5016626;28;20076;-67
2023/05/30 06:15:16;;;;;;;4.78;1.73;;;12.70;99.90;;;;;;5015674;28;20046;-62
2023/05/30 06:17:42;;;;;;;4.85;1.83;;;12.80;99.90;;;;;;5016430;28;20045;-61
2023/05/30 06:20:08;;;;;;;5.35;1.63;;;12.80;99.90;;;;;;5016355;28;20128;-62
2023/05/30 06:22:34;;;;;;;3.47;1.63;;;12.90;99.90;;;;;;5016771;28;20060;-62
2023/05/30 06:24:59;;;;;;;4.72;2.22;;;12.90;99.90;;;;;;5016261;28;20053;-62
2023/05/30 06:27:25;;;;;;;5.90;1.70;;;12.90;99.90;;;;;;5015831;28;20064;-63
2023/05/30 06:29:52;;;;;;;3.53;1.70;;;12.90;99.90;;;;;;5016613;28;20053;-63
2023/05/30 06:32:18;;;;;;;3.25;1.40;;;12.90;99.90;;;;;;5015941;28;20056;-63
2023/05/30 06:34:48;;;;;;;4.75;1.70;;;12.90;99.90;;;;;;5016283;28;20386;-64
2023/05/30 06:37:14;;;;;;;3.78;1.80;;;12.90;99.90;;;;;;5016059;28;20085;-63
2023/05/30 06:39:40;;;;;;;4.57;1.65;;;12.90;99.90;;;;;;5014916;28;20062;-63
2023/05/30 06:42:08;;;;;;;4.28;1.70;;;12.90;99.90;;;;;;5016115;28;20064;-63
2023/05/30 06:44:34;;;;;;;5.28;1.60;;;12.90;99.90;;;;;;5016370;28;20087;-63
2023/05/30 06:47:00;;;;;;;5.45;1.52;;;12.90;99.90;;;;;;5015729;28;20065;-63
2023/05/30 06:49:26;;;;;;;4.85;1.83;;;12.90;99.90;;;;;;5015536;28;20145;-63
2023/05/30 06:51:52;;;;;;;6.40;1.58;;;12.90;99.90;;;;;;5015377;28;20128;-63
2023/05/30 06:54:17;;;;;;;3.35;1.58;;;13.00;99.90;;;;;;5016245;28;20092;-63
2023/05/30 06:56:43;;;;;;;4.47;1.75;;;13.00;99.90;;;;;;5015644;28;20444;-63
2023/05/30 06:59:09;;;;;;;2.60;1.35;;;13.00;99.90;;;;;;5015001;28;20061;-63
2023/05/30 07:01:34;;;;;;;4.78;1.90;;;13.10;99.90;;;;;;5015754;28;20088;-63
2023/05/30 07:04:00;;;;;;;3.35;1.70;;;13.10;99.90;;;;;;5014424;28;20050;-63
2023/05/30 07:06:26;;;;;;;5.68;1.73;;;13.00;99.90;;;;;;5015470;28;20041;-63
2023/05/30 07:08:51;;;;;;;3.45;1.35;;;13.00;99.90;;;;;;5015380;28;20037;-63
2023/05/30 07:11:17;;;;;;;3.13;1.50;;;12.90;99.90;;;;;;5015347;28;20050;-63
2023/05/30 07:13:43;;;;;;;3.25;1.70;;;12.90;99.90;;;;;;5015325;28;20121;-64
2023/05/30 07:16:09;;;;;;;3.33;1.55;;;12.90;99.90;;;;;;5014721;28;20053;-63
2023/05/30 07:18:34;;;;;;;3.15;1.52;;;12.80;99.90;;;;;;5015159;28;20049;-64
2023/05/30 07:21:00;;;;;;;3.53;1.83;;;12.80;99.90;;;;;;5015874;28;20116;-65
2023/05/30 07:23:26;;;;;;;3.83;1.63;;;12.80;99.90;;;;;;5015371;28;20430;-63
2023/05/30 07:25:51;;;;;;;4.72;1.95;;;12.80;99.90;;;;;;5015424;28;20390;-64
2023/05/30 07:28:20;;;;;;;4.85;2.20;;;12.80;99.90;;;;;;5015036;28;20038;-64
2023/05/30 07:30:46;;;;;;;4.05;1.70;;;12.70;99.90;;;;;;5014890;28;20053;-64
2023/05/30 07:33:12;;;;;;;3.08;1.70;;;12.70;99.90;;;;;;5014639;28;20049;-65
2023/05/30 07:35:37;;;;;;;3.20;1.80;;;12.80;99.90;;;;;;5013756;28;20386;-64
2023/05/30 07:38:03;;;;;;;5.13;1.80;;;12.80;99.90;;;;;;5014747;28;20045;-65
2023/05/30 07:40:28;;;;;;;3.60;1.80;;;12.90;99.90;;;;;;5015302;28;20506;-64
2023/05/30 07:42:54;;;;;;;3.80;1.70;;;12.90;99.90;;;;;;5014647;28;20046;-64
2023/05/30 07:45:20;;;;;;;3.45;1.85;;;13.00;99.90;;;;;;5014230;28;20057;-64
2023/05/30 07:47:46;;;;;;;4.63;1.73;;;13.10;99.90;;;;;;5014481;28;20087;-64
2023/05/30 07:50:12;;;;;;;3.83;1.85;;;13.10;99.90;;;;;;5013820;28;20103;-64
2023/05/30 07:52:38;;;;;;;5.53;2.00;;;13.20;99.90;;;;;;5014326;28;20050;-65
2023/05/30 07:55:04;;;;;;;5.97;2.42;;;13.20;99.90;;;;;;5015188;28;20060;-64
2023/05/30 07:57:30;;;;;;;4.05;2.13;;;13.20;99.90;;;;;;5014302;28;20046;-64
2023/05/30 07:59:57;;;;;;;7.30;2.60;;;13.20;99.90;;;;;;5014340;28;20057;-64
2023/05/30 08:02:25;;;;;;;6.40;1.90;;;13.20;99.90;;;;;;5015033;28;20089;-64
2023/05/30 08:04:55;;;;;;;5.80;2.33;;;13.20;99.90;;;;;;5014237;28;20109;-63
2023/05/30 08:07:21;;;;;;;4.32;2.35;;;13.20;99.90;;;;;;5014857;28;20072;-64
2023/05/30 08:09:47;;;;;;;4.82;1.92;;;13.20;99.90;;;;;;5013643;28;20046;-64
2023/05/30 08:12:18;;;;;;;3.63;1.85;;;13.20;99.90;;;;;;5014888;28;20483;-67
2023/05/30 08:14:44;;;;;;;5.47;2.15;;;13.10;99.90;;;;;;5014808;28;20390;-67
2023/05/30 08:17:15;;;;;;;4.40;1.90;;;13.10;99.90;;;;;;5014100;28;20058;-67
2023/05/30 08:19:42;;;;;;;4.82;2.08;;;13.10;99.90;;;;;;5013946;28;20050;-66
2023/05/30 08:22:10;;;;;;;4.50;2.03;;;13.20;99.90;;;;;;5013999;28;20054;-67
2023/05/30 08:24:36;;;;;;;3.30;1.73;;;13.20;99.90;;;;;;5013890;28;20050;-69
2023/05/30 08:27:06;;;;;;;2.50;1.58;;;13.20;99.90;;;;;;5013856;28;20129;-69
2023/05/30 08:29:33;;;;;;;3.63;1.90;;;13.20;99.90;;;;;;5013911;28;20085;-68
2023/05/30 08:31:58;;;;;;;4.78;2.20;;;13.10;99.90;;;;;;5012894;28;20064;-69
2023/05/30 08:34:24;;;;;;;4.07;2.10;;;13.10;99.90;;;;;;5013850;28;20045;-67
2023/05/30 08:36:55;;;;;;;2.80;1.60;;;13.10;99.90;;;;;;5013793;28;20095;-67
2023/05/30 08:39:22;;;;;;;5.25;1.83;;;13.20;99.90;;;;;;5013714;28;20050;-67
2023/05/30 08:41:47;;;;;;;5.03;1.95;;;13.20;99.90;;;;;;5014364;28;20387;-67
2023/05/30 08:44:13;;;;;;;3.22;1.98;;;13.20;99.90;;;;;;5013712;28;20042;-68
2023/05/30 08:46:42;;;;;;;3.35;1.58;;;13.20;99.90;;;;;;5013699;28;20136;-67
2023/05/30 08:49:17;;;;;;;4.03;1.80;;;13.20;99.90;;;;;;5014066;28;20046;-69
2023/05/30 08:51:43;;;;;;;4.20;1.70;;;13.30;99.90;;;;;;5013994;28;20042;-68
2023/05/30 08:54:23;;;;;;;3.95;1.73;;;13.40;99.90;;;;;;5013570;28;20046;-67
2023/05/30 08:57:18;;;;;;;5.75;1.70;;;13.50;99.90;;;;;;5013522;28;20050;-67
2023/05/30 08:59:44;;;;;;;3.58;1.48;;;13.50;99.90;;;;;;5012801;28;20521;-68
2023/05/30 09:02:12;;;;;;;3.42;1.40;;;13.50;99.90;;;;;;5012326;28;20119;-67
2023/05/30 09:04:38;;;;;;;3.63;1.45;;;13.50;99.90;;;;;;5013433;28;20054;-68
2023/05/30 09:07:05;;;;;;;2.90;1.35;;;13.50;99.90;;;;;;5013898;28;20438;-68
2023/05/30 09:09:33;;;;;;;2.75;1.50;;;13.50;99.90;;;;;;5013993;28;20081;-68
2023/05/30 09:11:59;;;;;;;2.83;1.33;;;13.50;99.90;;;;;;5013551;28;20426;-67
2023/05/30 09:14:24;;;;;;;3.42;1.45;;;13.40;99.90;;;;;;5013714;28;20053;-67
2023/05/30 09:16:50;;;;;;;5.00;1.55;;;13.40;99.90;;;;;;5013295;28;20111;-67
2023/05/30 09:19:16;;;;;;;3.90;1.33;;;13.40;99.90;;;;;;5013318;28;20483;-67
2023/05/30 09:21:42;;;;;;;2.75;1.20;;;13.40;99.90;;;;;;5013922;28;20134;-68
2023/05/30 09:24:08;;;;;;;4.50;1.58;;;13.40;99.90;;;;;;5017472;28;20046;-68
2023/05/30 09:26:34;;;;;;;3.22;1.70;;;13.40;99.90;;;;;;5017193;28;20079;-67
2023/05/30 09:29:10;;;;;;;4.13;1.70;;;13.50;99.90;;;;;;5015837;28;20506;-68
2023/05/30 09:31:37;;;;;;;3.10;1.45;;;13.60;99.90;;;;;;5016981;28;20091;-68
2023/05/30 09:34:03;;;;;;;3.13;1.60;;;13.70;99.90;;;;;;5017064;28;20131;-67
2023/05/30 09:36:31;;;;;;;2.65;1.48;;;13.80;99.90;;;;;;5017601;28;20049;-68
2023/05/30 09:39:02;;;;;;;2.47;1.50;;;13.70;99.90;;;;;;5017002;28;20046;-67
2023/05/30 09:41:28;;;;;;;2.78;1.40;;;13.80;99.90;;;;;;5016933;28;20062;-68
2023/05/30 09:43:56;;;;;;;2.97;1.27;;;13.80;99.90;;;;;;5016817;28;20406;-68
2023/05/30 09:46:23;;;;;;;2.10;1.10;;;13.70;99.90;;;;;;5016688;28;20045;-68
2023/05/30 09:48:49;;;;;;;2.28;1.40;;;13.60;99.90;;;;;;5016383;28;20671;-68
2023/05/30 09:51:16;;;;;;;2.47;1.30;;;13.60;99.90;;;;;;5015802;28;20475;-68
2023/05/30 09:54:03;;;;;;;2.40;1.67;;;13.60;99.90;;;;;;5016700;28;20042;-68
2023/05/30 09:56:39;;;;;;;3.42;1.38;;;13.60;99.90;;;;;;5016080;28;20386;-68
2023/05/30 09:59:07;;;;;;;2.95;1.25;;;13.60;99.90;;;;;;5015752;28;20050;-68
2023/05/30 10:01:42;;;;;;;2.95;1.45;;;13.60;99.90;;;;;;5016499;28;20042;-67
2023/05/30 10:04:13;;;;;;;2.33;1.02;;;13.70;99.90;;;;;;5016460;28;20081;-68
2023/05/30 10:06:41;;;;;;;3.75;1.13;;;13.70;99.90;;;;;;5015793;28;20517;-68
2023/05/30 10:09:08;;;;;;;2.70;1.20;;;13.80;99.90;;;;;;5016248;28;20237;-68
2023/05/30 10:11:35;;;;;;;2.13;1.00;;;13.90;99.90;;;;;;5016137;28;20049;-68
2023/05/30 10:14:01;;;;;;;1.83;1.10;;;14.00;99.90;;;;;;5016587;28;20431;-68
2023/05/30 10:16:28;;;;;;;2.88;1.10;;;14.10;99.90;;;;;;5016108;28;20096;-71
2023/05/30 10:18:59;;;;;;;2.28;1.05;;;14.20;99.90;;;;;;5016906;28;20359;-68
2023/05/30 10:21:26;;;;;;;2.17;1.25;;;14.20;99.90;;;;;;5015986;28;20125;-68
2023/05/30 10:23:55;;;;;;;2.03;1.02;;;14.30;99.90;;;;;;5016154;28;20057;-68
2023/05/30 10:26:27;;;;;;;2.38;1.00;;;14.40;99.90;;;;;;5015788;28;20045;-69
2023/05/30 10:28:55;;;;;;;1.40;0.70;;;14.50;99.90;;;;;;5016010;28;20046;-68
2023/05/30 10:31:23;;;;;;;5.00;0.98;;;14.60;99.90;;;;;;5015897;28;20045;-68
2023/05/30 10:33:51;;;;;;;1.65;0.75;;;14.70;99.90;;;;;;5014969;28;20073;-68
2023/05/30 10:36:17;;;;;;;1.63;0.75;;;14.80;99.90;;;;;;5014904;28;20052;-68
2023/05/30 10:39:09;;;;;;;1.98;0.88;;;14.80;99.90;;;;;;5015862;28;20038;-68
2023/05/30 10:41:54;;;;;;;2.20;0.80;;;14.80;99.90;;;;;;5014385;28;20058;-67
2023/05/30 10:44:42;;;;;;;2.40;0.75;;;14.80;99.90;;;;;;5015940;28;20050;-68
2023/05/30 10:47:13;;;;;;;1.95;0.85;;;14.80;99.90;;;;;;5015795;28;20057;-68
2023/05/30 10:49:40;;;;;;;2.17;0.90;;;14.70;99.90;;;;;;5015917;28;20483;-68
2023/05/30 10:52:09;;;;;;;1.75;0.80;;;14.70;99.90;;;;;;5016205;28;20056;-68
2023/05/30 10:54:36;;;;;;;1.95;0.90;;;14.60;99.90;;;;;;5015657;28;20091;-68
2023/05/30 10:57:27;;;;;;;1.33;0.70;;;14.50;99.90;;;;;;5015529;28;20043;-68
2023/05/30 11:00:17;;;;;;;1.65;0.90;;;14.50;99.90;;;;;;5015537;28;20053;-68
2023/05/30 11:02:48;;;;;;;1.70;0.70;;;14.50;99.90;;;;;;5012332;28;20057;-68
2023/05/30 11:05:30;;;;;;;2.38;0.80;;;14.50;99.90;;;;;;5016044;28;20061;-69
2023/05/30 11:08:01;;;;;;;1.40;0.70;;;14.60;99.90;;;;;;5015425;28;20042;-69
2023/05/30 11:10:28;;;;;;;1.92;0.70;;;14.70;99.90;;;;;;5015050;28;20045;-69
2023/05/30 11:13:08;;;;;;;1.27;0.73;;;14.70;99.90;;;;;;5015281;28;20125;-68
2023/05/30 11:15:35;;;;;;;1.58;0.80;;;14.80;99.90;;;;;;4998955;28;20046;-67
2023/05/30 11:18:01;;;;;;;1.77;1.00;;;14.80;99.90;;;;;;5014896;28;20387;-70
2023/05/30 11:20:26;;;;;;;1.65;0.70;;;14.80;99.90;;;;;;5015290;28;20050;-69
2023/05/30 11:23:01;;;;;;;2.33;1.05;;;14.90;99.90;;;;;;5015078;28;20501;-69
2023/05/30 11:25:29;;;;;;;1.60;0.93;;;14.90;99.90;;;;;;5015345;28;20458;-68
2023/05/30 11:28:03;;;;;;;2.25;0.82;;;14.90;99.90;;;;;;5014867;28;20053;-68
2023/05/30 11:30:30;;;;;;;2.15;1.10;;;15.00;99.90;;;;;;5015806;28;20057;-68
2023/05/30 11:32:58;;;;;;;2.03;1.05;;;15.00;99.90;;;;;;5014766;28;20395;-67
2023/05/30 11:35:26;;;;;;;1.80;0.90;;;15.10;99.90;;;;;;5013776;28;20395;-67
2023/05/30 11:37:55;;;;;;;2.22;0.95;;;15.10;99.90;;;;;;5014108;28;20446;-67
2023/05/30 11:40:21;;;;;;;2.05;0.90;;;15.10;99.90;;;;;;5015543;28;20058;-67
2023/05/30 11:42:54;;;;;;;1.73;0.82;;;15.10;99.90;;;;;;5014451;28;20064;-67
2023/05/30 11:45:29;;;;;;;2.17;1.05;;;15.20;99.90;;;;;;5014838;28;20050;-67
2023/05/30 11:48:10;;;;;;;1.65;0.95;;;15.20;99.90;;;;;;5014651;28;20034;-67
2023/05/30 11:50:38;;;;;;;1.60;0.90;;;15.20;99.90;;;;;;5014217;28;20065;-68
2023/05/30 11:53:09;;;;;;;1.98;0.93;;;15.30;99.90;;;;;;5014549;28;20046;-67
2023/05/30 11:55:36;;;;;;;1.30;0.82;;;15.30;99.90;;;;;;5014565;28;20096;-68
2023/05/30 11:58:01;;;;;;;2.72;0.98;;;15.40;99.90;;;;;;5014528;28;20050;-68
2023/05/30 12:00:27;;;;;;;1.88;0.90;;;15.50;99.90;;;;;;5014597;28;20124;-68
2023/05/30 12:02:53;;;;;;;2.03;1.02;;;15.40;99.90;;;;;;5014341;28;20045;-67
2023/05/30 12:05:18;;;;;;;2.28;1.00;;;15.40;99.90;;;;;;5014025;28;20046;-67
2023/05/30 12:07:48;;;;;;;1.83;1.00;;;15.30;99.90;;;;;;5013105;28;20100;-68
2023/05/30 12:10:14;;;;;;;2.00;1.13;;;15.20;99.90;;;;;;5014270;28;20380;-68
2023/05/30 12:12:39;;;;;;;1.92;1.25;;;15.10;99.90;;;;;;5014516;28;20060;-68
2023/05/30 12:15:06;;;;;;;1.88;1.15;;;15.10;99.90;;;;;;5013730;28;20433;-67
2023/05/30 12:17:32;;;;;;;1.90;1.10;;;15.10;99.90;;;;;;5014725;28;20050;-67
2023/05/30 12:20:06;;;;;;;2.70;1.20;;;15.20;99.90;;;;;;5014782;28;20119;-68
2023/05/30 12:22:31;;;;;;;1.90;1.27;;;15.30;99.90;;;;;;5014066;28;20050;-67
2023/05/30 12:24:57;;;;;;;2.42;1.35;;;15.50;99.90;;;;;;5014118;28;20057;-73
2023/05/30 12:27:25;;;;;;;1.50;1.00;;;15.60;99.90;;;;;;5013883;28;20085;-76
2023/05/30 12:29:51;;;;;;;2.28;1.10;;;15.60;99.90;;;;;;5014110;28;20049;-67
2023/05/30 12:32:25;;;;;;;1.98;1.00;;;15.70;99.90;;;;;;5013812;28;20049;-68
2023/05/30 12:34:53;;;;;;;2.30;1.10;;;15.70;99.90;;;;;;5013800;28;20049;-67
2023/05/30 12:37:19;;;;;;;1.70;0.93;;;15.70;99.90;;;;;;5013886;28;20052;-67
2023/05/30 12:39:53;;;;;;;2.30;1.08;;;15.70;99.90;;;;;;5013948;28;20046;-67
2023/05/30 12:42:28;;;;;;;1.67;0.93;;;15.90;99.90;;;;;;5013915;28;20398;-67
2023/05/30 12:45:02;;;;;;;1.80;1.17;;;16.00;99.90;;;;;;5014009;28;20041;-67
2023/05/30 12:47:28;;;;;;;2.25;1.30;;;16.10;99.90;;;;;;5014358;28;20053;-67
2023/05/30 12:49:55;;;;;;;2.67;1.10;;;16.10;99.90;;;;;;5014353;28;20391;-67
2023/05/30 12:52:26;;;;;;;2.33;1.20;;;16.20;99.90;;;;;;5013793;28;20088;-67